sensor_id;sensor_type;location;lat;lon;timestamp;P1;durP1;ratioP1;P2;durP2;ratioP2
39814;SDS011;25495;45.948;4.568;2022-10-31T00:02:05;9.95;;;3.85;;
39814;SDS011;25495;45.948;4.568;2022-10-31T00:04:31;8.95;;;4.00;;
39814;SDS011;25495;45.948;4.568;2022-10-31T00:06:57;16.30;;;4.53;;
39814;SDS011;25495;45.948;4.568;2022-10-31T00:09:22;12.18;;;4.65;;
39814;SDS011;25495;45.948;4.568;2022-10-31T00:11:48;11.38;;;4.78;;
39814;SDS011;25495;45.948;4.568;2022-10-31T00:14:14;17.15;;;4.93;;
39814;SDS011;25495;45.948;4.568;2022-10-31T00:16:40;13.10;;;4.53;;
39814;SDS011;25495;45.948;4.568;2022-10-31T00:19:06;13.90;;;4.07;;
39814;SDS011;25495;45.948;4.568;2022-10-31T00:21:33;15.13;;;5.00;;
39814;SDS011;25495;45.948;4.568;2022-10-31T00:24:00;13.30;;;4.60;;
39814;SDS011;25495;45.948;4.568;2022-10-31T00:26:29;10.82;;;4.63;;
39814;SDS011;25495;45.948;4.568;2022-10-31T00:28:56;12.95;;;4.63;;
39814;SDS011;25495;45.948;4.568;2022-10-31T00:31:23;12.75;;;4.38;;
39814;SDS011;25495;45.948;4.568;2022-10-31T00:33:49;10.00;;;4.85;;
39814;SDS011;25495;45.948;4.568;2022-10-31T00:36:18;8.40;;;4.93;;
39814;SDS011;25495;45.948;4.568;2022-10-31T00:38:45;12.27;;;4.40;;
39814;SDS011;25495;45.948;4.568;2022-10-31T00:41:12;12.75;;;5.30;;
39814;SDS011;25495;45.948;4.568;2022-10-31T00:43:40;9.73;;;4.70;;
39814;SDS011;25495;45.948;4.568;2022-10-31T00:46:06;13.45;;;5.15;;
39814;SDS011;25495;45.948;4.568;2022-10-31T00:48:32;16.45;;;5.70;;
39814;SDS011;25495;45.948;4.568;2022-10-31T00:50:57;15.63;;;5.75;;
39814;SDS011;25495;45.948;4.568;2022-10-31T00:53:23;11.90;;;4.78;;
39814;SDS011;25495;45.948;4.568;2022-10-31T00:55:49;14.68;;;5.50;;
39814;SDS011;25495;45.948;4.568;2022-10-31T00:58:15;14.90;;;4.97;;
39814;SDS011;25495;45.948;4.568;2022-10-31T01:00:41;12.45;;;5.32;;
39814;SDS011;25495;45.948;4.568;2022-10-31T01:03:06;18.38;;;5.68;;
39814;SDS011;25495;45.948;4.568;2022-10-31T01:05:32;11.07;;;4.88;;
39814;SDS011;25495;45.948;4.568;2022-10-31T01:07:58;11.20;;;4.80;;
39814;SDS011;25495;45.948;4.568;2022-10-31T01:10:24;11.65;;;4.65;;
39814;SDS011;25495;45.948;4.568;2022-10-31T01:12:50;14.18;;;6.18;;
39814;SDS011;25495;45.948;4.568;2022-10-31T01:15:17;13.27;;;5.55;;
39814;SDS011;25495;45.948;4.568;2022-10-31T01:17:45;18.55;;;5.60;;
39814;SDS011;25495;45.948;4.568;2022-10-31T01:20:13;16.40;;;6.30;;
39814;SDS011;25495;45.948;4.568;2022-10-31T01:22:39;17.67;;;5.35;;
39814;SDS011;25495;45.948;4.568;2022-10-31T01:25:05;11.43;;;5.05;;
39814;SDS011;25495;45.948;4.568;2022-10-31T01:27:32;13.90;;;4.97;;
39814;SDS011;25495;45.948;4.568;2022-10-31T01:29:57;11.63;;;5.18;;
39814;SDS011;25495;45.948;4.568;2022-10-31T01:32:23;13.02;;;5.40;;
39814;SDS011;25495;45.948;4.568;2022-10-31T01:34:49;13.82;;;4.82;;
39814;SDS011;25495;45.948;4.568;2022-10-31T01:37:15;13.48;;;5.70;;
39814;SDS011;25495;45.948;4.568;2022-10-31T01:39:41;11.55;;;5.53;;
39814;SDS011;25495;45.948;4.568;2022-10-31T01:42:09;11.13;;;6.03;;
39814;SDS011;25495;45.948;4.568;2022-10-31T01:44:48;18.65;;;6.15;;
39814;SDS011;25495;45.948;4.568;2022-10-31T01:47:15;15.48;;;6.22;;
39814;SDS011;25495;45.948;4.568;2022-10-31T01:49:51;12.50;;;5.63;;
39814;SDS011;25495;45.948;4.568;2022-10-31T01:52:38;13.82;;;6.28;;
39814;SDS011;25495;45.948;4.568;2022-10-31T01:55:12;10.55;;;6.03;;
39814;SDS011;25495;45.948;4.568;2022-10-31T01:57:42;15.80;;;6.07;;
39814;SDS011;25495;45.948;4.568;2022-10-31T02:00:11;11.07;;;5.50;;
39814;SDS011;25495;45.948;4.568;2022-10-31T02:02:38;14.60;;;6.40;;
39814;SDS011;25495;45.948;4.568;2022-10-31T02:05:05;17.00;;;6.40;;
39814;SDS011;25495;45.948;4.568;2022-10-31T02:07:36;18.25;;;6.50;;
39814;SDS011;25495;45.948;4.568;2022-10-31T02:10:23;16.80;;;6.75;;
39814;SDS011;25495;45.948;4.568;2022-10-31T02:12:51;16.58;;;6.68;;
39814;SDS011;25495;45.948;4.568;2022-10-31T02:15:18;17.95;;;6.80;;
39814;SDS011;25495;45.948;4.568;2022-10-31T02:17:44;16.00;;;6.10;;
39814;SDS011;25495;45.948;4.568;2022-10-31T02:20:15;13.88;;;8.02;;
39814;SDS011;25495;45.948;4.568;2022-10-31T02:33:53;13.43;;;6.43;;
39814;SDS011;25495;45.948;4.568;2022-10-31T02:36:27;18.95;;;6.70;;
39814;SDS011;25495;45.948;4.568;2022-10-31T02:41:59;10.57;;;6.05;;
39814;SDS011;25495;45.948;4.568;2022-10-31T02:44:38;14.98;;;6.90;;
39814;SDS011;25495;45.948;4.568;2022-10-31T02:52:27;24.02;;;6.65;;
39814;SDS011;25495;45.948;4.568;2022-10-31T02:54:54;9.45;;;5.32;;
39814;SDS011;25495;45.948;4.568;2022-10-31T02:57:24;19.13;;;6.72;;
39814;SDS011;25495;45.948;4.568;2022-10-31T02:59:55;18.83;;;7.32;;
39814;SDS011;25495;45.948;4.568;2022-10-31T03:11:01;19.27;;;7.85;;
39814;SDS011;25495;45.948;4.568;2022-10-31T03:15:56;18.00;;;6.07;;
39814;SDS011;25495;45.948;4.568;2022-10-31T03:18:29;11.95;;;5.70;;
39814;SDS011;25495;45.948;4.568;2022-10-31T03:23:29;16.48;;;6.25;;
39814;SDS011;25495;45.948;4.568;2022-10-31T03:25:57;13.18;;;6.47;;
39814;SDS011;25495;45.948;4.568;2022-10-31T03:28:29;11.75;;;5.75;;
39814;SDS011;25495;45.948;4.568;2022-10-31T03:30:59;16.38;;;6.43;;
39814;SDS011;25495;45.948;4.568;2022-10-31T03:33:27;19.02;;;6.15;;
39814;SDS011;25495;45.948;4.568;2022-10-31T03:35:56;16.48;;;6.28;;
39814;SDS011;25495;45.948;4.568;2022-10-31T03:38:24;15.75;;;5.68;;
39814;SDS011;25495;45.948;4.568;2022-10-31T03:40:52;14.23;;;6.57;;
39814;SDS011;25495;45.948;4.568;2022-10-31T03:43:24;14.40;;;6.78;;
39814;SDS011;25495;45.948;4.568;2022-10-31T03:45:53;13.63;;;7.00;;
39814;SDS011;25495;45.948;4.568;2022-10-31T03:48:19;20.08;;;6.90;;
39814;SDS011;25495;45.948;4.568;2022-10-31T03:50:56;14.23;;;5.80;;
39814;SDS011;25495;45.948;4.568;2022-10-31T03:56:07;15.50;;;6.70;;
39814;SDS011;25495;45.948;4.568;2022-10-31T03:58:46;13.43;;;6.18;;
39814;SDS011;25495;45.948;4.568;2022-10-31T04:01:30;17.95;;;7.20;;
39814;SDS011;25495;45.948;4.568;2022-10-31T04:03:59;15.27;;;6.35;;
39814;SDS011;25495;45.948;4.568;2022-10-31T04:06:26;16.75;;;6.70;;
39814;SDS011;25495;45.948;4.568;2022-10-31T04:08:55;15.23;;;5.40;;
39814;SDS011;25495;45.948;4.568;2022-10-31T04:11:29;14.63;;;6.90;;
39814;SDS011;25495;45.948;4.568;2022-10-31T04:14:02;19.77;;;6.97;;
39814;SDS011;25495;45.948;4.568;2022-10-31T04:16:29;15.30;;;7.20;;
39814;SDS011;25495;45.948;4.568;2022-10-31T04:18:55;14.05;;;6.35;;
39814;SDS011;25495;45.948;4.568;2022-10-31T04:21:26;13.10;;;6.32;;
39814;SDS011;25495;45.948;4.568;2022-10-31T04:23:56;15.07;;;6.85;;
39814;SDS011;25495;45.948;4.568;2022-10-31T04:26:22;14.60;;;7.22;;
39814;SDS011;25495;45.948;4.568;2022-10-31T04:28:48;26.45;;;7.25;;
39814;SDS011;25495;45.948;4.568;2022-10-31T04:31:13;19.08;;;7.22;;
39814;SDS011;25495;45.948;4.568;2022-10-31T04:33:40;17.88;;;7.15;;
39814;SDS011;25495;45.948;4.568;2022-10-31T04:36:06;22.27;;;8.20;;
39814;SDS011;25495;45.948;4.568;2022-10-31T04:38:32;13.82;;;8.05;;
39814;SDS011;25495;45.948;4.568;2022-10-31T04:40:57;18.50;;;8.68;;
39814;SDS011;25495;45.948;4.568;2022-10-31T04:43:23;16.35;;;8.75;;
39814;SDS011;25495;45.948;4.568;2022-10-31T04:45:49;18.35;;;8.60;;
39814;SDS011;25495;45.948;4.568;2022-10-31T04:48:15;18.90;;;9.40;;
39814;SDS011;25495;45.948;4.568;2022-10-31T04:50:41;15.90;;;8.32;;
39814;SDS011;25495;45.948;4.568;2022-10-31T04:53:06;15.23;;;7.93;;
39814;SDS011;25495;45.948;4.568;2022-10-31T04:55:32;19.58;;;8.43;;
39814;SDS011;25495;45.948;4.568;2022-10-31T04:57:58;24.35;;;9.25;;
39814;SDS011;25495;45.948;4.568;2022-10-31T05:00:24;21.50;;;9.45;;
39814;SDS011;25495;45.948;4.568;2022-10-31T05:02:53;23.95;;;11.25;;
39814;SDS011;25495;45.948;4.568;2022-10-31T05:07:47;25.23;;;11.18;;
39814;SDS011;25495;45.948;4.568;2022-10-31T05:10:15;21.75;;;10.85;;
39814;SDS011;25495;45.948;4.568;2022-10-31T05:12:54;28.85;;;11.57;;
39814;SDS011;25495;45.948;4.568;2022-10-31T05:15:24;25.63;;;12.52;;
39814;SDS011;25495;45.948;4.568;2022-10-31T05:17:51;24.10;;;12.23;;
39814;SDS011;25495;45.948;4.568;2022-10-31T05:20:19;25.63;;;15.07;;
39814;SDS011;25495;45.948;4.568;2022-10-31T05:22:47;26.73;;;14.90;;
39814;SDS011;25495;45.948;4.568;2022-10-31T05:25:14;27.63;;;13.70;;
39814;SDS011;25495;45.948;4.568;2022-10-31T05:27:42;23.63;;;12.63;;
39814;SDS011;25495;45.948;4.568;2022-10-31T05:30:09;25.45;;;13.30;;
39814;SDS011;25495;45.948;4.568;2022-10-31T05:32:40;25.13;;;13.70;;
39814;SDS011;25495;45.948;4.568;2022-10-31T05:35:12;22.00;;;12.88;;
39814;SDS011;25495;45.948;4.568;2022-10-31T05:37:40;32.40;;;14.27;;
39814;SDS011;25495;45.948;4.568;2022-10-31T05:40:06;29.75;;;14.77;;
39814;SDS011;25495;45.948;4.568;2022-10-31T05:42:34;31.90;;;14.18;;
39814;SDS011;25495;45.948;4.568;2022-10-31T05:45:00;24.85;;;14.23;;
39814;SDS011;25495;45.948;4.568;2022-10-31T05:47:26;30.90;;;16.02;;
39814;SDS011;25495;45.948;4.568;2022-10-31T05:49:52;22.42;;;13.65;;
39814;SDS011;25495;45.948;4.568;2022-10-31T05:52:18;29.45;;;13.52;;
39814;SDS011;25495;45.948;4.568;2022-10-31T05:54:44;23.70;;;11.93;;
39814;SDS011;25495;45.948;4.568;2022-10-31T05:57:09;26.52;;;13.77;;
39814;SDS011;25495;45.948;4.568;2022-10-31T05:59:35;26.10;;;13.43;;
39814;SDS011;25495;45.948;4.568;2022-10-31T06:02:01;24.35;;;14.20;;
39814;SDS011;25495;45.948;4.568;2022-10-31T06:04:27;28.30;;;13.27;;
39814;SDS011;25495;45.948;4.568;2022-10-31T06:06:53;23.83;;;13.18;;
39814;SDS011;25495;45.948;4.568;2022-10-31T06:09:18;27.20;;;13.93;;
39814;SDS011;25495;45.948;4.568;2022-10-31T06:11:44;24.20;;;12.55;;
39814;SDS011;25495;45.948;4.568;2022-10-31T06:14:10;21.85;;;12.40;;
39814;SDS011;25495;45.948;4.568;2022-10-31T06:16:36;20.85;;;12.60;;
39814;SDS011;25495;45.948;4.568;2022-10-31T06:19:01;26.73;;;10.07;;
39814;SDS011;25495;45.948;4.568;2022-10-31T06:21:27;20.35;;;10.52;;
39814;SDS011;25495;45.948;4.568;2022-10-31T06:23:53;20.73;;;12.02;;
39814;SDS011;25495;45.948;4.568;2022-10-31T06:26:19;20.30;;;12.00;;
39814;SDS011;25495;45.948;4.568;2022-10-31T06:28:44;27.55;;;13.25;;
39814;SDS011;25495;45.948;4.568;2022-10-31T06:31:10;25.45;;;13.30;;
39814;SDS011;25495;45.948;4.568;2022-10-31T06:33:36;26.50;;;13.00;;
39814;SDS011;25495;45.948;4.568;2022-10-31T06:36:02;20.45;;;10.43;;
39814;SDS011;25495;45.948;4.568;2022-10-31T06:38:28;18.20;;;10.60;;
39814;SDS011;25495;45.948;4.568;2022-10-31T06:40:54;27.50;;;11.85;;
39814;SDS011;25495;45.948;4.568;2022-10-31T06:43:20;25.23;;;11.93;;
39814;SDS011;25495;45.948;4.568;2022-10-31T06:45:47;24.98;;;13.45;;
39814;SDS011;25495;45.948;4.568;2022-10-31T06:48:13;34.13;;;14.40;;
39814;SDS011;25495;45.948;4.568;2022-10-31T06:50:39;30.17;;;13.88;;
39814;SDS011;25495;45.948;4.568;2022-10-31T06:53:05;30.02;;;13.13;;
39814;SDS011;25495;45.948;4.568;2022-10-31T06:55:31;30.00;;;13.38;;
39814;SDS011;25495;45.948;4.568;2022-10-31T06:57:59;21.73;;;12.20;;
39814;SDS011;25495;45.948;4.568;2022-10-31T07:00:26;27.33;;;13.45;;
39814;SDS011;25495;45.948;4.568;2022-10-31T07:02:58;27.15;;;12.85;;
39814;SDS011;25495;45.948;4.568;2022-10-31T07:05:25;23.88;;;13.45;;
39814;SDS011;25495;45.948;4.568;2022-10-31T07:07:53;26.75;;;12.93;;
39814;SDS011;25495;45.948;4.568;2022-10-31T07:10:24;21.40;;;12.18;;
39814;SDS011;25495;45.948;4.568;2022-10-31T07:12:57;24.80;;;11.35;;
39814;SDS011;25495;45.948;4.568;2022-10-31T07:15:25;27.08;;;11.07;;
39814;SDS011;25495;45.948;4.568;2022-10-31T07:17:51;27.75;;;12.75;;
39814;SDS011;25495;45.948;4.568;2022-10-31T07:20:18;27.85;;;12.45;;
39814;SDS011;25495;45.948;4.568;2022-10-31T07:22:44;25.08;;;13.93;;
39814;SDS011;25495;45.948;4.568;2022-10-31T07:25:10;25.05;;;12.60;;
39814;SDS011;25495;45.948;4.568;2022-10-31T07:27:39;28.27;;;13.13;;
39814;SDS011;25495;45.948;4.568;2022-10-31T07:32:40;22.92;;;11.07;;
39814;SDS011;25495;45.948;4.568;2022-10-31T07:35:07;18.15;;;9.32;;
39814;SDS011;25495;45.948;4.568;2022-10-31T07:37:34;23.27;;;11.07;;
39814;SDS011;25495;45.948;4.568;2022-10-31T07:40:01;22.92;;;10.52;;
39814;SDS011;25495;45.948;4.568;2022-10-31T07:42:28;20.42;;;9.88;;
39814;SDS011;25495;45.948;4.568;2022-10-31T07:44:53;17.45;;;9.77;;
39814;SDS011;25495;45.948;4.568;2022-10-31T07:47:19;25.25;;;10.15;;
39814;SDS011;25495;45.948;4.568;2022-10-31T07:49:45;18.20;;;10.05;;
39814;SDS011;25495;45.948;4.568;2022-10-31T07:52:11;18.92;;;10.23;;
39814;SDS011;25495;45.948;4.568;2022-10-31T07:54:36;21.45;;;9.65;;
39814;SDS011;25495;45.948;4.568;2022-10-31T07:57:02;18.60;;;9.73;;
39814;SDS011;25495;45.948;4.568;2022-10-31T07:59:28;21.70;;;9.40;;
39814;SDS011;25495;45.948;4.568;2022-10-31T08:01:54;16.98;;;9.90;;
39814;SDS011;25495;45.948;4.568;2022-10-31T08:04:19;21.98;;;9.52;;
39814;SDS011;25495;45.948;4.568;2022-10-31T08:06:45;17.25;;;8.70;;
39814;SDS011;25495;45.948;4.568;2022-10-31T08:09:13;25.02;;;10.00;;
39814;SDS011;25495;45.948;4.568;2022-10-31T08:11:39;28.17;;;9.43;;
39814;SDS011;25495;45.948;4.568;2022-10-31T08:14:05;22.63;;;9.13;;
39814;SDS011;25495;45.948;4.568;2022-10-31T08:16:30;23.65;;;10.98;;
39814;SDS011;25495;45.948;4.568;2022-10-31T08:18:56;22.60;;;9.50;;
39814;SDS011;25495;45.948;4.568;2022-10-31T08:21:22;29.25;;;10.18;;
39814;SDS011;25495;45.948;4.568;2022-10-31T08:23:48;19.60;;;10.13;;
39814;SDS011;25495;45.948;4.568;2022-10-31T08:26:13;19.75;;;9.90;;
39814;SDS011;25495;45.948;4.568;2022-10-31T08:28:39;17.73;;;9.77;;
39814;SDS011;25495;45.948;4.568;2022-10-31T08:31:05;18.52;;;9.75;;
39814;SDS011;25495;45.948;4.568;2022-10-31T08:33:31;19.80;;;8.88;;
39814;SDS011;25495;45.948;4.568;2022-10-31T08:35:57;13.43;;;7.90;;
39814;SDS011;25495;45.948;4.568;2022-10-31T08:38:23;18.33;;;8.35;;
39814;SDS011;25495;45.948;4.568;2022-10-31T08:40:49;17.75;;;7.90;;
39814;SDS011;25495;45.948;4.568;2022-10-31T08:43:16;14.27;;;7.70;;
39814;SDS011;25495;45.948;4.568;2022-10-31T08:45:43;16.67;;;7.10;;
39814;SDS011;25495;45.948;4.568;2022-10-31T08:48:13;14.25;;;7.30;;
39814;SDS011;25495;45.948;4.568;2022-10-31T08:50:41;14.10;;;7.78;;
39814;SDS011;25495;45.948;4.568;2022-10-31T08:53:11;13.10;;;6.70;;
39814;SDS011;25495;45.948;4.568;2022-10-31T08:55:41;15.18;;;6.55;;
39814;SDS011;25495;45.948;4.568;2022-10-31T08:58:12;13.07;;;6.63;;
39814;SDS011;25495;45.948;4.568;2022-10-31T09:00:41;16.15;;;7.07;;
39814;SDS011;25495;45.948;4.568;2022-10-31T09:03:11;16.92;;;7.47;;
39814;SDS011;25495;45.948;4.568;2022-10-31T09:05:41;15.70;;;6.32;;
39814;SDS011;25495;45.948;4.568;2022-10-31T09:08:08;16.63;;;6.20;;
39814;SDS011;25495;45.948;4.568;2022-10-31T09:10:34;13.05;;;6.38;;
39814;SDS011;25495;45.948;4.568;2022-10-31T09:13:03;19.38;;;6.97;;
39814;SDS011;25495;45.948;4.568;2022-10-31T09:15:35;13.35;;;6.78;;
39814;SDS011;25495;45.948;4.568;2022-10-31T09:18:03;14.07;;;6.30;;
39814;SDS011;25495;45.948;4.568;2022-10-31T09:20:30;17.85;;;6.65;;
39814;SDS011;25495;45.948;4.568;2022-10-31T09:23:00;14.32;;;6.50;;
39814;SDS011;25495;45.948;4.568;2022-10-31T09:25:32;12.68;;;6.90;;
39814;SDS011;25495;45.948;4.568;2022-10-31T09:27:59;16.17;;;6.88;;
39814;SDS011;25495;45.948;4.568;2022-10-31T09:30:27;18.67;;;6.32;;
39814;SDS011;25495;45.948;4.568;2022-10-31T09:32:58;16.33;;;7.47;;
39814;SDS011;25495;45.948;4.568;2022-10-31T09:35:28;13.35;;;5.43;;
39814;SDS011;25495;45.948;4.568;2022-10-31T09:37:55;10.40;;;5.18;;
39814;SDS011;25495;45.948;4.568;2022-10-31T09:40:21;15.32;;;5.80;;
39814;SDS011;25495;45.948;4.568;2022-10-31T09:51:42;15.85;;;5.43;;
39814;SDS011;25495;45.948;4.568;2022-10-31T09:54:12;13.80;;;4.75;;
39814;SDS011;25495;45.948;4.568;2022-10-31T09:56:44;14.73;;;5.28;;
39814;SDS011;25495;45.948;4.568;2022-10-31T09:59:16;8.93;;;4.68;;
39814;SDS011;25495;45.948;4.568;2022-10-31T10:02:18;13.23;;;5.18;;
39814;SDS011;25495;45.948;4.568;2022-10-31T10:18:46;12.95;;;4.43;;
39814;SDS011;25495;45.948;4.568;2022-10-31T10:21:35;9.82;;;4.45;;
39814;SDS011;25495;45.948;4.568;2022-10-31T10:26:56;10.45;;;3.53;;
39814;SDS011;25495;45.948;4.568;2022-10-31T10:29:33;18.63;;;4.65;;
39814;SDS011;25495;45.948;4.568;2022-10-31T10:32:13;10.50;;;3.67;;
39814;SDS011;25495;45.948;4.568;2022-10-31T10:34:49;10.68;;;3.75;;
39814;SDS011;25495;45.948;4.568;2022-10-31T10:37:28;8.32;;;4.55;;
39814;SDS011;25495;45.948;4.568;2022-10-31T10:40:13;10.20;;;4.15;;
39814;SDS011;25495;45.948;4.568;2022-10-31T11:00:30;8.60;;;3.80;;
39814;SDS011;25495;45.948;4.568;2022-10-31T11:03:11;7.15;;;3.33;;
39814;SDS011;25495;45.948;4.568;2022-10-31T11:05:39;8.88;;;3.88;;
39814;SDS011;25495;45.948;4.568;2022-10-31T11:08:07;8.50;;;3.40;;
39814;SDS011;25495;45.948;4.568;2022-10-31T11:10:33;7.32;;;3.67;;
39814;SDS011;25495;45.948;4.568;2022-10-31T11:13:05;10.85;;;3.72;;
39814;SDS011;25495;45.948;4.568;2022-10-31T11:15:37;12.52;;;3.83;;
39814;SDS011;25495;45.948;4.568;2022-10-31T11:18:20;7.97;;;4.15;;
39814;SDS011;25495;45.948;4.568;2022-10-31T11:20:53;16.58;;;4.45;;
39814;SDS011;25495;45.948;4.568;2022-10-31T11:23:21;11.98;;;4.03;;
39814;SDS011;25495;45.948;4.568;2022-10-31T11:26:16;10.65;;;3.40;;
39814;SDS011;25495;45.948;4.568;2022-10-31T11:28:43;8.55;;;3.35;;
39814;SDS011;25495;45.948;4.568;2022-10-31T11:31:11;8.38;;;4.03;;
39814;SDS011;25495;45.948;4.568;2022-10-31T11:36:20;11.35;;;4.03;;
39814;SDS011;25495;45.948;4.568;2022-10-31T11:38:54;11.55;;;3.55;;
39814;SDS011;25495;45.948;4.568;2022-10-31T11:41:30;14.38;;;4.70;;
39814;SDS011;25495;45.948;4.568;2022-10-31T11:43:58;10.77;;;3.50;;
39814;SDS011;25495;45.948;4.568;2022-10-31T11:46:35;8.75;;;3.55;;
39814;SDS011;25495;45.948;4.568;2022-10-31T11:49:05;12.40;;;3.25;;
39814;SDS011;25495;45.948;4.568;2022-10-31T11:51:42;7.25;;;3.10;;
39814;SDS011;25495;45.948;4.568;2022-10-31T11:54:27;12.95;;;3.53;;
39814;SDS011;25495;45.948;4.568;2022-10-31T11:56:55;13.20;;;3.72;;
39814;SDS011;25495;45.948;4.568;2022-10-31T12:01:53;6.40;;;3.13;;
39814;SDS011;25495;45.948;4.568;2022-10-31T12:04:23;7.50;;;3.72;;
39814;SDS011;25495;45.948;4.568;2022-10-31T12:07:09;13.88;;;3.50;;
39814;SDS011;25495;45.948;4.568;2022-10-31T12:09:36;12.23;;;4.10;;
39814;SDS011;25495;45.948;4.568;2022-10-31T12:12:05;8.32;;;3.10;;
39814;SDS011;25495;45.948;4.568;2022-10-31T12:17:31;5.55;;;2.47;;
39814;SDS011;25495;45.948;4.568;2022-10-31T12:41:45;6.32;;;2.47;;
39814;SDS011;25495;45.948;4.568;2022-10-31T13:00:27;10.07;;;2.83;;
39814;SDS011;25495;45.948;4.568;2022-10-31T13:03:17;8.95;;;2.75;;
39814;SDS011;25495;45.948;4.568;2022-10-31T13:05:58;6.45;;;3.08;;
39814;SDS011;25495;45.948;4.568;2022-10-31T13:08:30;6.18;;;2.25;;
39814;SDS011;25495;45.948;4.568;2022-10-31T13:16:44;7.03;;;2.40;;
39814;SDS011;25495;45.948;4.568;2022-10-31T13:21:49;5.47;;;1.85;;
39814;SDS011;25495;45.948;4.568;2022-10-31T13:24:36;10.48;;;2.95;;
39814;SDS011;25495;45.948;4.568;2022-10-31T13:27:03;7.38;;;2.72;;
39814;SDS011;25495;45.948;4.568;2022-10-31T13:29:42;8.82;;;2.63;;
39814;SDS011;25495;45.948;4.568;2022-10-31T13:32:24;9.20;;;2.70;;
39814;SDS011;25495;45.948;4.568;2022-10-31T13:34:54;4.47;;;2.10;;
39814;SDS011;25495;45.948;4.568;2022-10-31T13:37:35;8.68;;;2.50;;
39814;SDS011;25495;45.948;4.568;2022-10-31T13:43:06;11.48;;;2.70;;
39814;SDS011;25495;45.948;4.568;2022-10-31T13:45:47;6.63;;;2.60;;
39814;SDS011;25495;45.948;4.568;2022-10-31T13:50:41;10.73;;;2.70;;
39814;SDS011;25495;45.948;4.568;2022-10-31T13:55:44;7.50;;;2.20;;
39814;SDS011;25495;45.948;4.568;2022-10-31T13:58:53;8.93;;;2.17;;
39814;SDS011;25495;45.948;4.568;2022-10-31T14:03:37;6.15;;;3.05;;
39814;SDS011;25495;45.948;4.568;2022-10-31T14:06:05;7.65;;;2.97;;
39814;SDS011;25495;45.948;4.568;2022-10-31T14:08:34;9.20;;;3.00;;
39814;SDS011;25495;45.948;4.568;2022-10-31T14:11:03;8.02;;;3.15;;
39814;SDS011;25495;45.948;4.568;2022-10-31T14:13:34;11.20;;;2.92;;
39814;SDS011;25495;45.948;4.568;2022-10-31T14:16:04;7.72;;;2.58;;
39814;SDS011;25495;45.948;4.568;2022-10-31T14:18:33;12.10;;;2.50;;
39814;SDS011;25495;45.948;4.568;2022-10-31T14:23:50;10.10;;;3.25;;
39814;SDS011;25495;45.948;4.568;2022-10-31T14:28:46;9.60;;;4.15;;
39814;SDS011;25495;45.948;4.568;2022-10-31T14:31:32;17.17;;;4.07;;
39814;SDS011;25495;45.948;4.568;2022-10-31T14:39:17;11.38;;;2.95;;
39814;SDS011;25495;45.948;4.568;2022-10-31T14:52:53;12.73;;;3.38;;
39814;SDS011;25495;45.948;4.568;2022-10-31T14:55:21;13.77;;;3.05;;
39814;SDS011;25495;45.948;4.568;2022-10-31T14:57:54;8.57;;;3.10;;
39814;SDS011;25495;45.948;4.568;2022-10-31T15:00:25;5.63;;;2.78;;
39814;SDS011;25495;45.948;4.568;2022-10-31T15:03:13;9.63;;;3.33;;
39814;SDS011;25495;45.948;4.568;2022-10-31T15:05:46;10.90;;;3.05;;
39814;SDS011;25495;45.948;4.568;2022-10-31T15:08:33;11.70;;;2.67;;
39814;SDS011;25495;45.948;4.568;2022-10-31T15:14:14;15.52;;;3.83;;
39814;SDS011;25495;45.948;4.568;2022-10-31T15:16:42;9.00;;;3.72;;
39814;SDS011;25495;45.948;4.568;2022-10-31T15:19:13;11.18;;;3.22;;
39814;SDS011;25495;45.948;4.568;2022-10-31T15:21:42;10.05;;;3.50;;
39814;SDS011;25495;45.948;4.568;2022-10-31T15:24:13;18.20;;;3.25;;
39814;SDS011;25495;45.948;4.568;2022-10-31T15:26:52;16.60;;;3.28;;
39814;SDS011;25495;45.948;4.568;2022-10-31T15:29:23;16.90;;;4.10;;
39814;SDS011;25495;45.948;4.568;2022-10-31T15:31:59;9.02;;;4.15;;
39814;SDS011;25495;45.948;4.568;2022-10-31T15:34:41;13.50;;;4.15;;
39814;SDS011;25495;45.948;4.568;2022-10-31T15:37:12;10.15;;;3.60;;
39814;SDS011;25495;45.948;4.568;2022-10-31T15:39:39;15.55;;;3.53;;
39814;SDS011;25495;45.948;4.568;2022-10-31T15:42:17;9.23;;;3.78;;
39814;SDS011;25495;45.948;4.568;2022-10-31T15:44:56;11.35;;;3.15;;
39814;SDS011;25495;45.948;4.568;2022-10-31T15:47:26;11.00;;;4.45;;
39814;SDS011;25495;45.948;4.568;2022-10-31T15:49:56;10.07;;;4.47;;
39814;SDS011;25495;45.948;4.568;2022-10-31T15:57:39;12.80;;;4.38;;
39814;SDS011;25495;45.948;4.568;2022-10-31T16:00:23;12.93;;;4.70;;
39814;SDS011;25495;45.948;4.568;2022-10-31T16:03:10;10.93;;;3.90;;
39814;SDS011;25495;45.948;4.568;2022-10-31T16:05:54;10.10;;;3.90;;
39814;SDS011;25495;45.948;4.568;2022-10-31T16:08:23;8.80;;;4.25;;
39814;SDS011;25495;45.948;4.568;2022-10-31T16:10:58;14.77;;;3.75;;
39814;SDS011;25495;45.948;4.568;2022-10-31T16:16:18;16.15;;;4.30;;
39814;SDS011;25495;45.948;4.568;2022-10-31T16:18:48;9.63;;;3.78;;
39814;SDS011;25495;45.948;4.568;2022-10-31T16:21:22;9.15;;;4.35;;
39814;SDS011;25495;45.948;4.568;2022-10-31T16:23:55;9.55;;;3.38;;
39814;SDS011;25495;45.948;4.568;2022-10-31T16:26:24;13.15;;;4.30;;
39814;SDS011;25495;45.948;4.568;2022-10-31T16:28:52;16.63;;;3.75;;
39814;SDS011;25495;45.948;4.568;2022-10-31T16:31:36;15.82;;;4.25;;
39814;SDS011;25495;45.948;4.568;2022-10-31T16:34:14;15.57;;;4.57;;
39814;SDS011;25495;45.948;4.568;2022-10-31T16:36:44;10.65;;;3.78;;
39814;SDS011;25495;45.948;4.568;2022-10-31T16:39:10;10.05;;;4.03;;
39814;SDS011;25495;45.948;4.568;2022-10-31T16:41:40;10.18;;;3.75;;
39814;SDS011;25495;45.948;4.568;2022-10-31T16:47:03;13.35;;;4.03;;
39814;SDS011;25495;45.948;4.568;2022-10-31T16:49:39;12.43;;;4.57;;
39814;SDS011;25495;45.948;4.568;2022-10-31T16:52:06;10.90;;;4.65;;
39814;SDS011;25495;45.948;4.568;2022-10-31T16:54:32;9.75;;;3.92;;
39814;SDS011;25495;45.948;4.568;2022-10-31T16:56:59;10.52;;;4.28;;
39814;SDS011;25495;45.948;4.568;2022-10-31T16:59:26;11.55;;;3.78;;
39814;SDS011;25495;45.948;4.568;2022-10-31T17:01:52;19.67;;;4.90;;
39814;SDS011;25495;45.948;4.568;2022-10-31T17:04:18;9.40;;;3.78;;
39814;SDS011;25495;45.948;4.568;2022-10-31T17:06:44;11.38;;;3.55;;
39814;SDS011;25495;45.948;4.568;2022-10-31T17:09:10;12.50;;;3.97;;
39814;SDS011;25495;45.948;4.568;2022-10-31T17:11:36;15.90;;;4.22;;
39814;SDS011;25495;45.948;4.568;2022-10-31T17:14:06;15.60;;;3.88;;
39814;SDS011;25495;45.948;4.568;2022-10-31T17:16:33;7.60;;;3.60;;
39814;SDS011;25495;45.948;4.568;2022-10-31T17:18:59;17.08;;;3.95;;
39814;SDS011;25495;45.948;4.568;2022-10-31T17:21:24;9.40;;;3.72;;
39814;SDS011;25495;45.948;4.568;2022-10-31T17:23:52;14.60;;;4.25;;
39814;SDS011;25495;45.948;4.568;2022-10-31T17:26:18;15.02;;;4.72;;
39814;SDS011;25495;45.948;4.568;2022-10-31T17:28:44;11.80;;;3.60;;
39814;SDS011;25495;45.948;4.568;2022-10-31T17:31:22;16.73;;;4.28;;
39814;SDS011;25495;45.948;4.568;2022-10-31T17:33:49;11.48;;;4.20;;
39814;SDS011;25495;45.948;4.568;2022-10-31T17:36:15;12.98;;;3.90;;
39814;SDS011;25495;45.948;4.568;2022-10-31T17:38:41;11.05;;;4.05;;
39814;SDS011;25495;45.948;4.568;2022-10-31T17:41:07;7.80;;;3.67;;
39814;SDS011;25495;45.948;4.568;2022-10-31T17:43:33;11.35;;;3.38;;
39814;SDS011;25495;45.948;4.568;2022-10-31T17:45:59;10.75;;;4.45;;
39814;SDS011;25495;45.948;4.568;2022-10-31T17:48:28;11.70;;;4.60;;
39814;SDS011;25495;45.948;4.568;2022-10-31T17:50:53;10.25;;;3.83;;
39814;SDS011;25495;45.948;4.568;2022-10-31T17:53:19;11.40;;;4.03;;